KELK/ELK METAR and TAF weather

Enter ICAO airport designator
Station Type Date Time Source
KELK METAR 2020/02/29 03:15 UTC NOAA

KELK 290315Z AUTO 00000KT 10SM CLR 07/M04 A3027 RMK AO2 T00671039


Station Type Date Time Source
KELK Decoded METAR 2020/02/29 03:15 UTC NOAA

Station name not available
Feb 28, 2020 - 10:15 PM EST / 2020.02.29 0315 UTC
Wind: Calm:0
Visibility: 10 mile(s):0
Sky conditions: clear
Temperature: 44.1 F (6.7 C)
Dew Point: 25.0 F (-3.9 C)
Relative Humidity: 46%
Pressure (altimeter): 30.27 in. Hg (1025 hPa)
ob: KELK 290315Z AUTO 00000KT 10SM CLR 07/M04 A3027 RMK AO2 T00671039
cycle: 3

Station Type Date Time Source
KELK TAF UTC NOAA

Error!

Example: see airport list